sensor_id;sensor_type;location;lat;lon;timestamp;P1;durP1;ratioP1;P2;durP2;ratioP2
70825;SDS011;58446;41.490;22.098;2023-03-07T00:00:09;11.00;;;6.18;;
70825;SDS011;58446;41.490;22.098;2023-03-07T00:02:36;12.43;;;6.43;;
70825;SDS011;58446;41.490;22.098;2023-03-07T00:05:02;13.02;;;7.20;;
70825;SDS011;58446;41.490;22.098;2023-03-07T00:07:29;13.57;;;8.32;;
70825;SDS011;58446;41.490;22.098;2023-03-07T00:09:56;15.20;;;8.60;;
70825;SDS011;58446;41.490;22.098;2023-03-07T00:12:22;14.07;;;8.77;;
70825;SDS011;58446;41.490;22.098;2023-03-07T00:14:48;13.50;;;8.17;;
70825;SDS011;58446;41.490;22.098;2023-03-07T00:17:14;14.93;;;7.80;;
70825;SDS011;58446;41.490;22.098;2023-03-07T00:19:42;11.17;;;7.33;;
70825;SDS011;58446;41.490;22.098;2023-03-07T00:22:09;13.57;;;7.85;;
70825;SDS011;58446;41.490;22.098;2023-03-07T00:24:35;16.33;;;9.52;;
70825;SDS011;58446;41.490;22.098;2023-03-07T00:27:01;23.58;;;14.38;;
70825;SDS011;58446;41.490;22.098;2023-03-07T00:29:27;21.47;;;11.83;;
70825;SDS011;58446;41.490;22.098;2023-03-07T00:31:53;15.45;;;8.70;;
70825;SDS011;58446;41.490;22.098;2023-03-07T00:34:18;13.23;;;7.73;;
70825;SDS011;58446;41.490;22.098;2023-03-07T00:36:47;15.25;;;10.05;;
70825;SDS011;58446;41.490;22.098;2023-03-07T00:39:12;14.55;;;8.95;;
70825;SDS011;58446;41.490;22.098;2023-03-07T00:41:38;12.63;;;6.80;;
70825;SDS011;58446;41.490;22.098;2023-03-07T00:44:04;16.75;;;7.85;;
70825;SDS011;58446;41.490;22.098;2023-03-07T00:46:29;12.33;;;6.00;;
70825;SDS011;58446;41.490;22.098;2023-03-07T00:48:55;11.73;;;7.03;;
70825;SDS011;58446;41.490;22.098;2023-03-07T00:51:21;12.90;;;8.97;;
70825;SDS011;58446;41.490;22.098;2023-03-07T00:53:47;15.57;;;8.25;;
70825;SDS011;58446;41.490;22.098;2023-03-07T00:56:15;13.05;;;8.07;;
70825;SDS011;58446;41.490;22.098;2023-03-07T00:58:50;17.37;;;10.00;;
70825;SDS011;58446;41.490;22.098;2023-03-07T01:01:17;14.10;;;8.02;;
70825;SDS011;58446;41.490;22.098;2023-03-07T01:03:45;12.55;;;8.27;;
70825;SDS011;58446;41.490;22.098;2023-03-07T01:06:14;11.68;;;6.65;;
70825;SDS011;58446;41.490;22.098;2023-03-07T01:08:43;18.40;;;11.18;;
70825;SDS011;58446;41.490;22.098;2023-03-07T01:11:09;19.63;;;10.50;;
70825;SDS011;58446;41.490;22.098;2023-03-07T01:13:35;12.85;;;7.80;;
70825;SDS011;58446;41.490;22.098;2023-03-07T01:16:09;14.68;;;7.63;;
70825;SDS011;58446;41.490;22.098;2023-03-07T01:18:36;14.02;;;8.55;;
70825;SDS011;58446;41.490;22.098;2023-03-07T01:21:09;16.47;;;9.00;;
70825;SDS011;58446;41.490;22.098;2023-03-07T01:23:36;13.65;;;7.85;;
70825;SDS011;58446;41.490;22.098;2023-03-07T01:26:02;16.23;;;9.23;;
70825;SDS011;58446;41.490;22.098;2023-03-07T01:28:27;18.17;;;10.23;;
70825;SDS011;58446;41.490;22.098;2023-03-07T01:30:57;16.55;;;8.98;;
70825;SDS011;58446;41.490;22.098;2023-03-07T01:33:23;13.68;;;8.50;;
70825;SDS011;58446;41.490;22.098;2023-03-07T01:35:49;15.70;;;8.27;;
70825;SDS011;58446;41.490;22.098;2023-03-07T01:38:15;14.20;;;7.75;;
70825;SDS011;58446;41.490;22.098;2023-03-07T01:40:41;15.38;;;8.82;;
70825;SDS011;58446;41.490;22.098;2023-03-07T01:48:47;13.73;;;8.68;;
70825;SDS011;58446;41.490;22.098;2023-03-07T01:51:18;16.10;;;8.98;;
70825;SDS011;58446;41.490;22.098;2023-03-07T01:53:46;11.33;;;7.50;;
70825;SDS011;58446;41.490;22.098;2023-03-07T01:56:14;11.88;;;6.65;;
70825;SDS011;58446;41.490;22.098;2023-03-07T01:58:40;14.10;;;7.13;;
70825;SDS011;58446;41.490;22.098;2023-03-07T02:01:07;11.00;;;7.07;;
70825;SDS011;58446;41.490;22.098;2023-03-07T02:03:45;13.20;;;7.47;;
70825;SDS011;58446;41.490;22.098;2023-03-07T02:06:15;11.15;;;6.80;;
70825;SDS011;58446;41.490;22.098;2023-03-07T02:08:41;12.90;;;7.20;;
70825;SDS011;58446;41.490;22.098;2023-03-07T02:11:08;13.00;;;6.93;;
70825;SDS011;58446;41.490;22.098;2023-03-07T02:13:35;12.30;;;6.27;;
70825;SDS011;58446;41.490;22.098;2023-03-07T02:16:01;12.18;;;5.13;;
70825;SDS011;58446;41.490;22.098;2023-03-07T02:18:28;10.70;;;7.10;;
70825;SDS011;58446;41.490;22.098;2023-03-07T02:28:56;12.35;;;7.40;;
70825;SDS011;58446;41.490;22.098;2023-03-07T02:31:23;11.65;;;6.85;;
70825;SDS011;58446;41.490;22.098;2023-03-07T02:33:49;12.70;;;6.78;;
70825;SDS011;58446;41.490;22.098;2023-03-07T02:36:16;13.47;;;8.20;;
70825;SDS011;58446;41.490;22.098;2023-03-07T02:38:46;13.13;;;8.10;;
70825;SDS011;58446;41.490;22.098;2023-03-07T02:41:13;14.13;;;8.10;;
70825;SDS011;58446;41.490;22.098;2023-03-07T02:43:42;13.18;;;7.63;;
70825;SDS011;58446;41.490;22.098;2023-03-07T02:46:07;11.77;;;8.00;;
70825;SDS011;58446;41.490;22.098;2023-03-07T02:48:33;13.13;;;7.67;;
70825;SDS011;58446;41.490;22.098;2023-03-07T02:50:59;13.35;;;7.38;;
70825;SDS011;58446;41.490;22.098;2023-03-07T02:53:25;13.65;;;8.48;;
70825;SDS011;58446;41.490;22.098;2023-03-07T02:55:51;16.40;;;9.83;;
70825;SDS011;58446;41.490;22.098;2023-03-07T02:58:16;17.98;;;11.00;;
70825;SDS011;58446;41.490;22.098;2023-03-07T03:00:42;14.67;;;9.30;;
70825;SDS011;58446;41.490;22.098;2023-03-07T03:03:07;12.25;;;7.55;;
70825;SDS011;58446;41.490;22.098;2023-03-07T03:05:33;13.37;;;7.83;;
70825;SDS011;58446;41.490;22.098;2023-03-07T03:07:59;14.70;;;7.57;;
70825;SDS011;58446;41.490;22.098;2023-03-07T03:10:24;15.43;;;8.83;;
70825;SDS011;58446;41.490;22.098;2023-03-07T03:12:50;13.47;;;7.47;;
70825;SDS011;58446;41.490;22.098;2023-03-07T03:15:16;12.57;;;6.93;;
70825;SDS011;58446;41.490;22.098;2023-03-07T03:17:41;12.87;;;7.43;;
70825;SDS011;58446;41.490;22.098;2023-03-07T03:20:07;15.00;;;9.05;;
70825;SDS011;58446;41.490;22.098;2023-03-07T03:22:36;12.65;;;7.65;;
70825;SDS011;58446;41.490;22.098;2023-03-07T03:25:02;14.50;;;8.40;;
70825;SDS011;58446;41.490;22.098;2023-03-07T03:27:31;13.75;;;7.38;;
70825;SDS011;58446;41.490;22.098;2023-03-07T03:29:57;13.02;;;8.00;;
70825;SDS011;58446;41.490;22.098;2023-03-07T03:32:22;13.50;;;7.67;;
70825;SDS011;58446;41.490;22.098;2023-03-07T03:34:48;12.38;;;8.13;;
70825;SDS011;58446;41.490;22.098;2023-03-07T03:37:14;14.77;;;7.73;;
70825;SDS011;58446;41.490;22.098;2023-03-07T03:39:40;14.20;;;6.80;;
70825;SDS011;58446;41.490;22.098;2023-03-07T03:42:05;13.52;;;8.10;;
70825;SDS011;58446;41.490;22.098;2023-03-07T03:44:31;12.67;;;7.70;;
70825;SDS011;58446;41.490;22.098;2023-03-07T03:46:57;15.38;;;7.85;;
70825;SDS011;58446;41.490;22.098;2023-03-07T03:49:23;13.95;;;8.10;;
70825;SDS011;58446;41.490;22.098;2023-03-07T03:51:49;11.23;;;5.53;;
70825;SDS011;58446;41.490;22.098;2023-03-07T03:54:14;12.85;;;7.95;;
70825;SDS011;58446;41.490;22.098;2023-03-07T03:56:40;12.53;;;7.93;;
70825;SDS011;58446;41.490;22.098;2023-03-07T03:59:06;15.23;;;7.77;;
70825;SDS011;58446;41.490;22.098;2023-03-07T04:01:31;14.10;;;6.43;;
70825;SDS011;58446;41.490;22.098;2023-03-07T04:03:57;14.87;;;7.97;;
70825;SDS011;58446;41.490;22.098;2023-03-07T04:06:24;12.93;;;7.17;;
70825;SDS011;58446;41.490;22.098;2023-03-07T04:08:52;13.10;;;7.63;;
70825;SDS011;58446;41.490;22.098;2023-03-07T04:11:19;13.55;;;7.93;;
70825;SDS011;58446;41.490;22.098;2023-03-07T04:13:46;12.85;;;7.63;;
70825;SDS011;58446;41.490;22.098;2023-03-07T04:16:11;12.87;;;7.47;;
70825;SDS011;58446;41.490;22.098;2023-03-07T04:18:37;12.13;;;7.63;;
70825;SDS011;58446;41.490;22.098;2023-03-07T04:21:04;13.20;;;6.97;;
70825;SDS011;58446;41.490;22.098;2023-03-07T04:23:30;10.77;;;7.50;;
70825;SDS011;58446;41.490;22.098;2023-03-07T04:25:57;12.98;;;7.95;;
70825;SDS011;58446;41.490;22.098;2023-03-07T04:28:25;10.73;;;7.03;;
70825;SDS011;58446;41.490;22.098;2023-03-07T04:31:12;12.30;;;7.73;;
70825;SDS011;58446;41.490;22.098;2023-03-07T04:33:40;13.00;;;7.68;;
70825;SDS011;58446;41.490;22.098;2023-03-07T04:36:06;12.07;;;7.82;;
70825;SDS011;58446;41.490;22.098;2023-03-07T04:38:32;14.52;;;8.68;;
70825;SDS011;58446;41.490;22.098;2023-03-07T04:40:58;17.47;;;9.47;;
70825;SDS011;58446;41.490;22.098;2023-03-07T04:43:23;24.55;;;14.23;;
70825;SDS011;58446;41.490;22.098;2023-03-07T04:45:51;22.53;;;12.17;;
70825;SDS011;58446;41.490;22.098;2023-03-07T04:48:17;23.70;;;13.35;;
70825;SDS011;58446;41.490;22.098;2023-03-07T04:50:43;32.85;;;18.48;;
70825;SDS011;58446;41.490;22.098;2023-03-07T04:53:08;33.43;;;19.20;;
70825;SDS011;58446;41.490;22.098;2023-03-07T04:55:34;35.93;;;20.10;;
70825;SDS011;58446;41.490;22.098;2023-03-07T04:57:59;35.50;;;20.83;;
70825;SDS011;58446;41.490;22.098;2023-03-07T05:00:25;31.53;;;18.63;;
70825;SDS011;58446;41.490;22.098;2023-03-07T05:02:51;32.92;;;18.25;;
70825;SDS011;58446;41.490;22.098;2023-03-07T05:05:20;30.70;;;17.75;;
70825;SDS011;58446;41.490;22.098;2023-03-07T05:07:46;30.93;;;17.40;;
70825;SDS011;58446;41.490;22.098;2023-03-07T05:10:11;27.00;;;13.93;;
70825;SDS011;58446;41.490;22.098;2023-03-07T05:12:37;21.65;;;13.10;;
70825;SDS011;58446;41.490;22.098;2023-03-07T05:15:03;17.37;;;10.60;;
70825;SDS011;58446;41.490;22.098;2023-03-07T05:17:29;17.52;;;9.98;;
70825;SDS011;58446;41.490;22.098;2023-03-07T05:19:55;16.92;;;9.20;;
70825;SDS011;58446;41.490;22.098;2023-03-07T05:22:21;17.17;;;9.67;;
70825;SDS011;58446;41.490;22.098;2023-03-07T05:24:47;16.80;;;9.25;;
70825;SDS011;58446;41.490;22.098;2023-03-07T05:27:12;13.75;;;9.05;;
70825;SDS011;58446;41.490;22.098;2023-03-07T05:29:40;21.30;;;12.57;;
70825;SDS011;58446;41.490;22.098;2023-03-07T05:32:06;17.83;;;12.00;;
70825;SDS011;58446;41.490;22.098;2023-03-07T05:34:31;21.13;;;13.95;;
70825;SDS011;58446;41.490;22.098;2023-03-07T05:36:57;21.50;;;15.03;;
70825;SDS011;58446;41.490;22.098;2023-03-07T05:39:23;23.60;;;15.27;;
70825;SDS011;58446;41.490;22.098;2023-03-07T05:41:49;27.73;;;20.17;;
70825;SDS011;58446;41.490;22.098;2023-03-07T05:44:15;31.67;;;20.02;;
70825;SDS011;58446;41.490;22.098;2023-03-07T05:46:41;19.95;;;13.20;;
70825;SDS011;58446;41.490;22.098;2023-03-07T05:49:07;19.00;;;12.77;;
70825;SDS011;58446;41.490;22.098;2023-03-07T05:51:32;20.35;;;14.60;;
70825;SDS011;58446;41.490;22.098;2023-03-07T05:53:58;23.87;;;16.10;;
70825;SDS011;58446;41.490;22.098;2023-03-07T05:56:24;22.83;;;14.50;;
70825;SDS011;58446;41.490;22.098;2023-03-07T05:58:50;24.23;;;14.63;;
70825;SDS011;58446;41.490;22.098;2023-03-07T06:01:15;19.90;;;13.33;;
70825;SDS011;58446;41.490;22.098;2023-03-07T06:03:41;16.95;;;10.80;;
70825;SDS011;58446;41.490;22.098;2023-03-07T06:06:08;19.70;;;11.67;;
70825;SDS011;58446;41.490;22.098;2023-03-07T06:08:35;20.70;;;12.82;;
70825;SDS011;58446;41.490;22.098;2023-03-07T06:11:00;16.13;;;10.70;;
70825;SDS011;58446;41.490;22.098;2023-03-07T06:13:26;14.77;;;10.07;;
70825;SDS011;58446;41.490;22.098;2023-03-07T06:15:52;20.60;;;11.93;;
70825;SDS011;58446;41.490;22.098;2023-03-07T06:18:19;20.88;;;11.65;;
70825;SDS011;58446;41.490;22.098;2023-03-07T06:20:53;37.30;;;21.90;;
70825;SDS011;58446;41.490;22.098;2023-03-07T06:23:20;23.73;;;13.23;;
70825;SDS011;58446;41.490;22.098;2023-03-07T06:25:46;17.05;;;9.43;;
70825;SDS011;58446;41.490;22.098;2023-03-07T06:28:12;20.77;;;12.07;;
70825;SDS011;58446;41.490;22.098;2023-03-07T06:30:37;17.88;;;10.93;;
70825;SDS011;58446;41.490;22.098;2023-03-07T06:33:03;15.80;;;9.53;;
70825;SDS011;58446;41.490;22.098;2023-03-07T06:35:29;20.20;;;9.35;;
70825;SDS011;58446;41.490;22.098;2023-03-07T06:37:54;17.00;;;8.57;;
70825;SDS011;58446;41.490;22.098;2023-03-07T06:40:20;16.80;;;8.27;;
70825;SDS011;58446;41.490;22.098;2023-03-07T06:42:46;15.37;;;7.90;;
70825;SDS011;58446;41.490;22.098;2023-03-07T06:45:12;13.73;;;7.10;;
70825;SDS011;58446;41.490;22.098;2023-03-07T06:47:37;13.03;;;8.03;;
70825;SDS011;58446;41.490;22.098;2023-03-07T06:50:03;14.07;;;8.20;;
70825;SDS011;58446;41.490;22.098;2023-03-07T06:52:29;16.13;;;9.15;;
70825;SDS011;58446;41.490;22.098;2023-03-07T06:54:54;12.57;;;7.75;;
70825;SDS011;58446;41.490;22.098;2023-03-07T06:57:20;16.73;;;8.10;;
70825;SDS011;58446;41.490;22.098;2023-03-07T06:59:46;9.37;;;6.10;;
70825;SDS011;58446;41.490;22.098;2023-03-07T07:02:12;12.48;;;6.75;;
70825;SDS011;58446;41.490;22.098;2023-03-07T07:04:38;13.75;;;8.75;;
70825;SDS011;58446;41.490;22.098;2023-03-07T07:07:04;13.47;;;8.43;;
70825;SDS011;58446;41.490;22.098;2023-03-07T07:09:31;15.45;;;9.63;;
70825;SDS011;58446;41.490;22.098;2023-03-07T07:11:58;19.33;;;12.45;;
70825;SDS011;58446;41.490;22.098;2023-03-07T07:14:23;19.13;;;12.03;;
70825;SDS011;58446;41.490;22.098;2023-03-07T07:16:49;18.02;;;9.65;;
70825;SDS011;58446;41.490;22.098;2023-03-07T07:19:15;12.07;;;8.93;;
70825;SDS011;58446;41.490;22.098;2023-03-07T07:21:41;17.42;;;9.55;;
70825;SDS011;58446;41.490;22.098;2023-03-07T07:24:08;13.35;;;8.60;;
70825;SDS011;58446;41.490;22.098;2023-03-07T07:26:36;16.10;;;9.40;;
70825;SDS011;58446;41.490;22.098;2023-03-07T07:29:02;11.75;;;6.70;;
70825;SDS011;58446;41.490;22.098;2023-03-07T07:31:27;15.25;;;10.38;;
70825;SDS011;58446;41.490;22.098;2023-03-07T07:33:53;12.37;;;8.03;;
70825;SDS011;58446;41.490;22.098;2023-03-07T07:36:19;13.35;;;9.40;;
70825;SDS011;58446;41.490;22.098;2023-03-07T07:38:45;9.97;;;6.07;;
70825;SDS011;58446;41.490;22.098;2023-03-07T07:41:10;10.60;;;6.73;;
70825;SDS011;58446;41.490;22.098;2023-03-07T07:43:36;11.07;;;5.67;;
70825;SDS011;58446;41.490;22.098;2023-03-07T07:46:04;10.27;;;6.30;;
70825;SDS011;58446;41.490;22.098;2023-03-07T07:48:30;13.85;;;8.20;;
70825;SDS011;58446;41.490;22.098;2023-03-07T07:51:00;17.50;;;10.60;;
70825;SDS011;58446;41.490;22.098;2023-03-07T07:53:26;13.25;;;7.60;;
70825;SDS011;58446;41.490;22.098;2023-03-07T07:55:52;14.85;;;9.32;;
70825;SDS011;58446;41.490;22.098;2023-03-07T07:58:18;13.17;;;6.93;;
70825;SDS011;58446;41.490;22.098;2023-03-07T08:00:43;10.07;;;6.20;;
70825;SDS011;58446;41.490;22.098;2023-03-07T08:03:10;9.13;;;6.27;;
70825;SDS011;58446;41.490;22.098;2023-03-07T08:05:36;11.40;;;7.13;;
70825;SDS011;58446;41.490;22.098;2023-03-07T08:08:01;12.90;;;7.30;;
70825;SDS011;58446;41.490;22.098;2023-03-07T08:10:27;9.70;;;5.70;;
70825;SDS011;58446;41.490;22.098;2023-03-07T08:12:53;15.60;;;8.30;;
70825;SDS011;58446;41.490;22.098;2023-03-07T08:15:19;10.73;;;7.00;;
70825;SDS011;58446;41.490;22.098;2023-03-07T08:17:48;10.43;;;6.07;;
70825;SDS011;58446;41.490;22.098;2023-03-07T08:20:15;10.52;;;5.90;;
70825;SDS011;58446;41.490;22.098;2023-03-07T08:22:41;11.70;;;7.13;;
70825;SDS011;58446;41.490;22.098;2023-03-07T08:25:09;20.07;;;10.60;;
70825;SDS011;58446;41.490;22.098;2023-03-07T08:27:44;10.73;;;5.93;;
70825;SDS011;58446;41.490;22.098;2023-03-07T08:30:10;11.02;;;5.93;;
70825;SDS011;58446;41.490;22.098;2023-03-07T08:32:36;22.92;;;12.63;;
70825;SDS011;58446;41.490;22.098;2023-03-07T08:35:02;31.80;;;16.27;;
70825;SDS011;58446;41.490;22.098;2023-03-07T08:37:28;15.40;;;9.65;;
70825;SDS011;58446;41.490;22.098;2023-03-07T08:39:53;14.33;;;9.30;;
70825;SDS011;58446;41.490;22.098;2023-03-07T08:42:19;7.97;;;5.00;;
70825;SDS011;58446;41.490;22.098;2023-03-07T08:44:45;8.60;;;5.33;;
70825;SDS011;58446;41.490;22.098;2023-03-07T08:47:10;10.23;;;5.35;;
70825;SDS011;58446;41.490;22.098;2023-03-07T08:49:38;11.32;;;6.90;;
70825;SDS011;58446;41.490;22.098;2023-03-07T08:52:04;8.53;;;5.20;;
70825;SDS011;58446;41.490;22.098;2023-03-07T08:54:30;11.50;;;6.47;;
70825;SDS011;58446;41.490;22.098;2023-03-07T08:56:56;8.13;;;4.32;;
70825;SDS011;58446;41.490;22.098;2023-03-07T08:59:23;12.88;;;6.65;;
70825;SDS011;58446;41.490;22.098;2023-03-07T09:01:49;8.57;;;4.70;;
70825;SDS011;58446;41.490;22.098;2023-03-07T09:04:14;9.85;;;5.18;;
70825;SDS011;58446;41.490;22.098;2023-03-07T09:06:40;10.73;;;5.83;;
70825;SDS011;58446;41.490;22.098;2023-03-07T09:09:05;8.87;;;5.33;;
70825;SDS011;58446;41.490;22.098;2023-03-07T09:11:31;7.85;;;5.55;;
70825;SDS011;58446;41.490;22.098;2023-03-07T09:13:57;8.73;;;4.20;;
70825;SDS011;58446;41.490;22.098;2023-03-07T09:16:22;12.98;;;6.25;;
70825;SDS011;58446;41.490;22.098;2023-03-07T09:18:48;8.83;;;5.10;;
70825;SDS011;58446;41.490;22.098;2023-03-07T09:21:14;7.10;;;3.92;;
70825;SDS011;58446;41.490;22.098;2023-03-07T09:23:41;7.23;;;4.50;;
70825;SDS011;58446;41.490;22.098;2023-03-07T09:26:07;10.35;;;5.57;;
70825;SDS011;58446;41.490;22.098;2023-03-07T09:28:33;11.00;;;6.18;;
70825;SDS011;58446;41.490;22.098;2023-03-07T09:30:59;8.03;;;3.70;;
70825;SDS011;58446;41.490;22.098;2023-03-07T09:33:30;7.20;;;4.13;;
70825;SDS011;58446;41.490;22.098;2023-03-07T09:35:55;7.35;;;4.82;;
70825;SDS011;58446;41.490;22.098;2023-03-07T09:38:21;6.67;;;3.93;;
70825;SDS011;58446;41.490;22.098;2023-03-07T09:40:46;24.43;;;12.73;;
70825;SDS011;58446;41.490;22.098;2023-03-07T09:43:22;11.43;;;6.45;;
70825;SDS011;58446;41.490;22.098;2023-03-07T09:51:29;18.95;;;10.52;;
70825;SDS011;58446;41.490;22.098;2023-03-07T09:54:25;8.27;;;4.60;;
70825;SDS011;58446;41.490;22.098;2023-03-07T09:57:03;8.82;;;5.05;;
70825;SDS011;58446;41.490;22.098;2023-03-07T09:59:54;10.35;;;5.45;;
70825;SDS011;58446;41.490;22.098;2023-03-07T10:07:32;6.83;;;4.40;;
70825;SDS011;58446;41.490;22.098;2023-03-07T10:10:00;8.18;;;3.60;;
70825;SDS011;58446;41.490;22.098;2023-03-07T10:12:37;10.85;;;5.30;;
70825;SDS011;58446;41.490;22.098;2023-03-07T10:15:51;12.13;;;6.90;;
70825;SDS011;58446;41.490;22.098;2023-03-07T10:21:06;7.85;;;4.47;;
70825;SDS011;58446;41.490;22.098;2023-03-07T10:24:51;15.13;;;8.95;;
70825;SDS011;58446;41.490;22.098;2023-03-07T10:27:02;14.85;;;6.55;;
70825;SDS011;58446;41.490;22.098;2023-03-07T10:29:47;7.90;;;4.30;;
70825;SDS011;58446;41.490;22.098;2023-03-07T10:32:22;6.20;;;3.67;;
70825;SDS011;58446;41.490;22.098;2023-03-07T10:40:54;9.85;;;4.63;;
70825;SDS011;58446;41.490;22.098;2023-03-07T10:43:23;11.20;;;6.83;;
70825;SDS011;58446;41.490;22.098;2023-03-07T10:46:05;8.10;;;4.40;;
70825;SDS011;58446;41.490;22.098;2023-03-07T10:48:41;9.57;;;4.35;;
70825;SDS011;58446;41.490;22.098;2023-03-07T10:53:56;7.50;;;4.10;;
70825;SDS011;58446;41.490;22.098;2023-03-07T10:56:22;7.33;;;4.20;;
70825;SDS011;58446;41.490;22.098;2023-03-07T11:01:33;7.72;;;3.80;;
70825;SDS011;58446;41.490;22.098;2023-03-07T11:04:01;7.00;;;3.90;;
70825;SDS011;58446;41.490;22.098;2023-03-07T11:06:39;6.10;;;3.55;;
70825;SDS011;58446;41.490;22.098;2023-03-07T11:09:16;7.13;;;3.70;;
70825;SDS011;58446;41.490;22.098;2023-03-07T11:14:48;10.75;;;6.22;;
70825;SDS011;58446;41.490;22.098;2023-03-07T11:17:19;8.93;;;4.97;;
70825;SDS011;58446;41.490;22.098;2023-03-07T11:19:57;7.68;;;5.30;;
70825;SDS011;58446;41.490;22.098;2023-03-07T11:22:25;7.55;;;4.13;;
70825;SDS011;58446;41.490;22.098;2023-03-07T11:27:54;11.32;;;5.88;;
70825;SDS011;58446;41.490;22.098;2023-03-07T11:40:57;12.45;;;7.25;;
70825;SDS011;58446;41.490;22.098;2023-03-07T11:43:38;12.18;;;7.70;;
70825;SDS011;58446;41.490;22.098;2023-03-07T11:54:28;8.75;;;5.30;;
70825;SDS011;58446;41.490;22.098;2023-03-07T12:08:39;8.77;;;4.68;;
70825;SDS011;58446;41.490;22.098;2023-03-07T12:13:59;6.80;;;4.07;;
70825;SDS011;58446;41.490;22.098;2023-03-07T12:19:26;7.07;;;4.87;;
70825;SDS011;58446;41.490;22.098;2023-03-07T12:24:45;7.05;;;4.63;;
70825;SDS011;58446;41.490;22.098;2023-03-07T12:27:40;7.00;;;4.25;;
70825;SDS011;58446;41.490;22.098;2023-03-07T12:30:19;6.57;;;4.15;;
70825;SDS011;58446;41.490;22.098;2023-03-07T12:32:50;7.53;;;4.63;;
70825;SDS011;58446;41.490;22.098;2023-03-07T12:38:01;19.42;;;12.95;;
70825;SDS011;58446;41.490;22.098;2023-03-07T12:40:34;8.77;;;5.55;;
70825;SDS011;58446;41.490;22.098;2023-03-07T12:43:19;8.23;;;4.78;;
70825;SDS011;58446;41.490;22.098;2023-03-07T12:45:49;9.13;;;6.30;;
70825;SDS011;58446;41.490;22.098;2023-03-07T12:48:25;11.38;;;6.95;;
70825;SDS011;58446;41.490;22.098;2023-03-07T12:51:10;9.45;;;5.70;;
70825;SDS011;58446;41.490;22.098;2023-03-07T12:53:52;8.10;;;5.05;;
70825;SDS011;58446;41.490;22.098;2023-03-07T12:56:30;9.75;;;6.78;;
70825;SDS011;58446;41.490;22.098;2023-03-07T12:59:07;16.80;;;11.33;;
70825;SDS011;58446;41.490;22.098;2023-03-07T13:01:45;11.80;;;8.27;;
70825;SDS011;58446;41.490;22.098;2023-03-07T13:06:44;11.00;;;6.60;;
70825;SDS011;58446;41.490;22.098;2023-03-07T13:09:13;11.25;;;6.45;;
70825;SDS011;58446;41.490;22.098;2023-03-07T13:14:38;19.42;;;11.95;;
70825;SDS011;58446;41.490;22.098;2023-03-07T13:17:09;17.42;;;11.32;;
70825;SDS011;58446;41.490;22.098;2023-03-07T13:24:41;28.63;;;18.43;;
70825;SDS011;58446;41.490;22.098;2023-03-07T13:27:15;14.98;;;9.65;;
70825;SDS011;58446;41.490;22.098;2023-03-07T13:45:55;6.50;;;3.65;;
70825;SDS011;58446;41.490;22.098;2023-03-07T13:49:06;6.88;;;3.80;;
70825;SDS011;58446;41.490;22.098;2023-03-07T13:51:07;6.90;;;4.00;;
70825;SDS011;58446;41.490;22.098;2023-03-07T13:53:44;5.60;;;3.40;;
70825;SDS011;58446;41.490;22.098;2023-03-07T13:58:54;6.13;;;3.40;;
70825;SDS011;58446;41.490;22.098;2023-03-07T14:01:45;7.35;;;3.30;;
70825;SDS011;58446;41.490;22.098;2023-03-07T14:09:24;7.65;;;4.15;;
70825;SDS011;58446;41.490;22.098;2023-03-07T14:11:59;8.00;;;4.78;;
70825;SDS011;58446;41.490;22.098;2023-03-07T14:14:44;9.32;;;3.80;;
70825;SDS011;58446;41.490;22.098;2023-03-07T14:23:35;7.10;;;4.22;;
70825;SDS011;58446;41.490;22.098;2023-03-07T14:26:28;7.13;;;4.55;;
70825;SDS011;58446;41.490;22.098;2023-03-07T14:31:44;10.60;;;6.50;;
70825;SDS011;58446;41.490;22.098;2023-03-07T14:34:18;9.02;;;5.72;;
70825;SDS011;58446;41.490;22.098;2023-03-07T14:36:55;11.35;;;5.43;;
70825;SDS011;58446;41.490;22.098;2023-03-07T14:39:24;9.27;;;4.40;;
70825;SDS011;58446;41.490;22.098;2023-03-07T14:42:14;7.38;;;3.90;;
70825;SDS011;58446;41.490;22.098;2023-03-07T14:47:34;6.88;;;4.25;;
70825;SDS011;58446;41.490;22.098;2023-03-07T14:50:12;7.05;;;4.07;;
70825;SDS011;58446;41.490;22.098;2023-03-07T14:52:41;10.50;;;6.22;;
70825;SDS011;58446;41.490;22.098;2023-03-07T14:55:26;14.60;;;8.30;;
70825;SDS011;58446;41.490;22.098;2023-03-07T14:57:59;8.37;;;4.50;;
70825;SDS011;58446;41.490;22.098;2023-03-07T15:00:26;14.80;;;7.80;;
70825;SDS011;58446;41.490;22.098;2023-03-07T15:02:57;11.27;;;5.90;;
70825;SDS011;58446;41.490;22.098;2023-03-07T15:05:35;18.33;;;9.77;;
70825;SDS011;58446;41.490;22.098;2023-03-07T15:08:02;10.90;;;5.72;;
70825;SDS011;58446;41.490;22.098;2023-03-07T15:10:40;17.08;;;9.32;;
70825;SDS011;58446;41.490;22.098;2023-03-07T15:13:13;16.13;;;8.27;;
70825;SDS011;58446;41.490;22.098;2023-03-07T15:15:48;10.38;;;5.53;;
70825;SDS011;58446;41.490;22.098;2023-03-07T15:18:32;18.13;;;11.53;;
70825;SDS011;58446;41.490;22.098;2023-03-07T15:21:04;13.57;;;7.07;;
70825;SDS011;58446;41.490;22.098;2023-03-07T15:23:31;8.27;;;5.25;;
70825;SDS011;58446;41.490;22.098;2023-03-07T15:26:02;25.00;;;10.82;;
70825;SDS011;58446;41.490;22.098;2023-03-07T15:28:38;16.80;;;7.82;;
70825;SDS011;58446;41.490;22.098;2023-03-07T15:31:06;13.20;;;6.97;;
70825;SDS011;58446;41.490;22.098;2023-03-07T15:33:35;62.53;;;23.30;;
70825;SDS011;58446;41.490;22.098;2023-03-07T15:38:35;48.67;;;18.65;;
70825;SDS011;58446;41.490;22.098;2023-03-07T15:41:22;48.20;;;19.97;;
70825;SDS011;58446;41.490;22.098;2023-03-07T15:44:31;26.70;;;12.02;;
70825;SDS011;58446;41.490;22.098;2023-03-07T15:46:50;17.45;;;10.40;;
70825;SDS011;58446;41.490;22.098;2023-03-07T15:49:26;10.95;;;6.15;;
70825;SDS011;58446;41.490;22.098;2023-03-07T15:51:59;10.88;;;6.22;;
70825;SDS011;58446;41.490;22.098;2023-03-07T15:54:35;15.40;;;9.63;;
70825;SDS011;58446;41.490;22.098;2023-03-07T15:57:14;14.95;;;8.65;;
70825;SDS011;58446;41.490;22.098;2023-03-07T15:59:49;13.27;;;9.32;;
70825;SDS011;58446;41.490;22.098;2023-03-07T16:04:55;13.20;;;8.77;;
70825;SDS011;58446;41.490;22.098;2023-03-07T16:07:25;15.07;;;9.30;;
70825;SDS011;58446;41.490;22.098;2023-03-07T16:09:50;10.40;;;5.95;;
70825;SDS011;58446;41.490;22.098;2023-03-07T16:12:16;14.13;;;9.23;;
70825;SDS011;58446;41.490;22.098;2023-03-07T16:14:45;9.35;;;5.68;;
70825;SDS011;58446;41.490;22.098;2023-03-07T16:20:01;18.88;;;10.63;;
70825;SDS011;58446;41.490;22.098;2023-03-07T16:22:28;13.00;;;5.97;;
70825;SDS011;58446;41.490;22.098;2023-03-07T16:24:55;21.48;;;11.43;;
70825;SDS011;58446;41.490;22.098;2023-03-07T16:27:21;29.15;;;15.63;;
70825;SDS011;58446;41.490;22.098;2023-03-07T16:29:49;17.48;;;10.13;;
70825;SDS011;58446;41.490;22.098;2023-03-07T16:32:18;13.63;;;8.23;;
70825;SDS011;58446;41.490;22.098;2023-03-07T16:34:45;14.33;;;8.50;;
70825;SDS011;58446;41.490;22.098;2023-03-07T16:37:12;10.93;;;6.65;;
70825;SDS011;58446;41.490;22.098;2023-03-07T16:39:39;13.05;;;7.50;;
70825;SDS011;58446;41.490;22.098;2023-03-07T16:42:05;14.98;;;8.82;;
70825;SDS011;58446;41.490;22.098;2023-03-07T16:44:38;19.88;;;10.10;;
70825;SDS011;58446;41.490;22.098;2023-03-07T16:47:05;26.07;;;13.80;;
70825;SDS011;58446;41.490;22.098;2023-03-07T16:49:38;31.55;;;13.38;;
70825;SDS011;58446;41.490;22.098;2023-03-07T16:52:04;18.80;;;12.00;;